Lynradar: storm image Ingen tordenbyger registrert..



Vårt webkamera mer informasjon My webcam


Kamera på Foreneset mer informasjon webcam on foreneset


Nedbørsradar  rain snow radar


Besøk vår andre værside:

Alternativ webside

iphone versjon

Nettbrett versjon

Foreneset
verstasjon



Ikke nødvendig med spesiell oppmerksomhet.    Det er ingen advarsler

Nære METAR rapporter

     
ENZV - Stavanger
oppdatert: 19-05-2019 08:20
For det meste skyet  
For det meste skyet  
   Vind: varierer 0.5 m/s
Vind: varierer 0.5 m/s
Temperatur: 14°C
Duggpunkt: 9°C
Fuktighet: 72%
Barometer: 1011 hPa
Skyer: For det meste skyet
Sikt: mer enn 10 km
Skydetaljer: Delvis Skyet 914.4 m,
For det meste skyet 2438.4 m
ENZV 190620Z VRB01KT 9999 SCT030 BKN080 14/09 Q1011 NOSIG
ENHD - Haugesund
oppdatert: 19-05-2019 08:20
Få Skyer  
Få Skyer  
   Vind: varierer 1.5 m/s
Vind: varierer 1.5 m/s
Temperatur: 15°C
Duggpunkt: 8°C
Fuktighet: 63%
Barometer: 1011 hPa
Skyer: Få Skyer
Sikt: mer enn 10 km
Skydetaljer: Få Skyer 1036.3 m
ENHD 190620Z VRB03KT 9999 FEW034 15/08 Q1011
ENBR - Bergen
oppdatert: 19-05-2019 08:20
Klart  
Klart  
   Vind: SØ 1.5 m/s
Vind: SØ 1.5 m/s
Temperatur: 13°C
Duggpunkt: 8°C
Fuktighet: 72%
Barometer: 1011 hPa
Sikt: mer enn 10 km
Skydetaljer: Klart
ENBR 190620Z 14003KT CAVOK 13/08 Q1011 NOSIG RMK WIND 1200FT 27002KT
ENCN - Kristiansand
oppdatert: 19-05-2019 08:20
Få Skyer  
Få Skyer  
   Vind: NØ 4.1 m/s
Vind: NØ 4.1 m/s
Temperatur: 14°C
Duggpunkt: 12°C
Fuktighet: 88%
Barometer: 1012 hPa
Skyer: Få Skyer
Sikt: mer enn 10 km
Skydetaljer: Få Skyer 548.6 m
ENCN 190620Z 04008KT 9999 FEW018 14/12 Q1012
ENGM - Oslo
oppdatert: 19-05-2019 08:20
Lett regn, For det meste skyet  
Lett regn, For det meste skyet  
   Vind: NNØ 3.1 m/s
Vind: NNØ 3.1 m/s
Temperatur: 11°C
Duggpunkt: 10°C
Fuktighet: 94%
Barometer: 1012 hPa
Skyer: For det meste skyet
Sikt: mer enn 10 km
Skydetaljer: Delvis Skyet 91.4 m,
For det meste skyet 365.8 m
ENGM 190620Z 03006KT 9999 -RA SCT003 BKN012 11/10 Q1012 TEMPO BKN015
ENVA - Trondheim
oppdatert: 19-05-2019 08:20
Lett regn, For det meste skyet  
Lett regn, For det meste skyet  
   Vind: Øst 4.1 m/s
Vind: Øst 4.1 m/s
Temperatur: 14°C
Duggpunkt: 8°C
Fuktighet: 67%
Barometer: 1014 hPa
Skyer: For det meste skyet
Sikt: mer enn 10 km
Skydetaljer: Delvis Skyet 1371.6 m,
For det meste skyet 1798.3 m
ENVA 190620Z 10008KT 060V140 9999 -RA SCT045 BKN059 14/08 Q1014 TEMPO RA RMK WIND 670FT 15017KT
    

Script utviklet av  Saratoga-weather.org Tilrettelagt for malen av  Weerstation Leuven

Du finner vår vær info også på:

UK Metoffice

European Weather Network

WeatherCloud

Weather Underground

Utstyr vi bruker:

Værstsjon
Davis VP2

Værprogram
Weather Display

Davis VP2

Weather Display